createdAt,value
2019-02-24T00:02:40.385Z,1.8
2019-02-24T00:07:41.744Z,1.7
2019-02-24T00:12:27.697Z,1.8
2019-02-24T00:17:27.739Z,1.6
2019-02-24T00:22:27.369Z,1.6
2019-02-24T00:27:27.256Z,1.5
2019-02-24T00:32:28.527Z,1.4
2019-02-24T00:37:29.075Z,1.4
2019-02-24T00:42:27.452Z,1.4
2019-02-24T00:47:27.688Z,1.3
2019-02-24T00:52:27.704Z,1.3
2019-02-24T00:57:27.819Z,1.3
2019-02-24T01:02:28.155Z,1.3
2019-02-24T01:07:29.068Z,1.3
2019-02-24T01:12:28.608Z,1.2
2019-02-24T01:17:28.056Z,1.1
2019-02-24T01:22:27.636Z,1.1
2019-02-24T01:27:27.963Z,1.1
2019-02-24T01:32:26.952Z,0.9
2019-02-24T01:37:27.421Z,0.9
2019-02-24T01:42:27.258Z,0.9
2019-02-24T01:47:28.433Z,0.9
2019-02-24T01:52:27.276Z,0.8
2019-02-24T01:57:27.557Z,0.9
2019-02-24T02:02:28.460Z,0.9
2019-02-24T02:07:28.205Z,0.8
2019-02-24T02:12:27.827Z,0.7
2019-02-24T02:17:29.417Z,0.7
2019-02-24T02:22:27.478Z,0.7
2019-02-24T02:27:28.365Z,0.7
2019-02-24T02:32:28.221Z,0.6
2019-02-24T02:37:27.311Z,0.6
2019-02-24T02:42:28.015Z,0.6
2019-02-24T02:47:27.800Z,0.5
2019-02-24T02:52:28.709Z,0.5
2019-02-24T02:57:28.040Z,0.4
2019-02-24T03:02:27.702Z,0.4
2019-02-24T03:07:28.044Z,0.3
2019-02-24T03:12:28.134Z,0.4
2019-02-24T03:17:27.687Z,0.4
2019-02-24T03:22:28.608Z,0.4
2019-02-24T03:27:27.470Z,0.4
2019-02-24T03:32:28.363Z,0.4
2019-02-24T03:37:28.125Z,0.3
2019-02-24T03:42:28.182Z,0.3
2019-02-24T03:47:29.612Z,0.3
2019-02-24T03:52:27.448Z,0.3
2019-02-24T03:57:29.004Z,0.1
2019-02-24T04:02:28.310Z,0.0
2019-02-24T04:07:28.978Z,-0.2
2019-02-24T04:12:27.947Z,-0.4
2019-02-24T04:17:28.550Z,-0.5
2019-02-24T04:22:28.117Z,-0.6
2019-02-24T04:27:27.641Z,-0.7
2019-02-24T04:32:27.966Z,-0.8
2019-02-24T04:37:28.217Z,-0.9
2019-02-24T04:42:27.752Z,-1.0
2019-02-24T04:47:29.208Z,-1.1
2019-02-24T04:52:27.428Z,-1.1
2019-02-24T04:57:27.865Z,-1.1
2019-02-24T05:02:27.816Z,-1.1
2019-02-24T05:07:28.884Z,-0.9
2019-02-24T05:12:27.968Z,-1.0
2019-02-24T05:17:28.369Z,-0.9
2019-02-24T05:22:27.433Z,-0.8
2019-02-24T05:27:28.308Z,0.9
2019-02-24T05:32:28.381Z,-0.9
2019-02-24T05:37:27.852Z,-0.8
2019-02-24T05:42:27.690Z,-0.8
2019-02-24T05:47:32.815Z,-0.8
2019-02-24T05:52:28.245Z,-0.8
2019-02-24T05:57:28.095Z,-0.7
2019-02-24T06:02:27.817Z,-0.7
2019-02-24T06:07:28.647Z,-0.8
2019-02-24T06:12:28.080Z,-0.7
2019-02-24T06:17:29.360Z,-0.7
2019-02-24T06:22:28.377Z,-0.6
2019-02-24T06:27:28.496Z,-0.6
2019-02-24T06:32:28.905Z,-0.5
2019-02-24T06:37:28.407Z,-0.4
2019-02-24T06:42:28.754Z,-0.5
2019-02-24T06:47:27.641Z,-0.4
2019-02-24T06:52:28.685Z,-0.3
2019-02-24T06:57:28.196Z,0.0
2019-02-24T07:02:28.395Z,0.2
2019-02-24T07:07:28.324Z,0.6
2019-02-24T07:12:28.269Z,0.6
2019-02-24T07:17:28.552Z,0.9
2019-02-24T07:22:28.489Z,1.2
2019-02-24T07:27:29.495Z,1.4
2019-02-24T07:32:28.499Z,1.5
2019-02-24T07:37:28.744Z,2.1
2019-02-24T07:42:28.944Z,2.1
2019-02-24T07:47:28.065Z,2.5
2019-02-24T07:52:28.279Z,2.8
2019-02-24T07:57:28.755Z,3.5
2019-02-24T08:02:28.751Z,3.5
2019-02-24T08:07:28.240Z,4.3
2019-02-24T08:12:28.274Z,4.2
2019-02-24T08:17:28.018Z,4.6
2019-02-24T08:22:28.328Z,5.2
2019-02-24T08:27:28.749Z,5.2
2019-02-24T08:32:28.262Z,5.6
2019-02-24T08:37:28.567Z,5.9
2019-02-24T08:42:27.736Z,5.8
2019-02-24T08:47:28.846Z,6.2
2019-02-24T08:52:29.808Z,6.6
2019-02-24T08:57:28.353Z,7.2
2019-02-24T09:02:28.486Z,7.5
2019-02-24T09:07:27.996Z,7.7
2019-02-24T09:12:27.998Z,7.7
2019-02-24T09:17:28.033Z,8.0
2019-02-24T09:22:28.242Z,8.0
2019-02-24T09:27:29.153Z,8.2
2019-02-24T09:32:28.578Z,8.6
2019-02-24T09:37:28.789Z,8.9
2019-02-24T09:42:28.134Z,9.4
2019-02-24T09:47:28.307Z,9.9
2019-02-24T09:52:28.702Z,10.4
2019-02-24T09:57:28.972Z,10.3
2019-02-24T10:02:28.368Z,10.6
2019-02-24T10:07:28.828Z,10.8
2019-02-24T10:12:29.180Z,11.1
2019-02-24T10:17:28.553Z,11.4
2019-02-24T10:22:27.939Z,11.3
2019-02-24T10:27:28.302Z,11.6
2019-02-24T10:32:28.457Z,11.9
2019-02-24T10:37:29.749Z,12.0
2019-02-24T10:42:27.752Z,12.3
2019-02-24T10:47:28.304Z,12.6
2019-02-24T10:52:27.507Z,12.8
2019-02-24T10:57:28.022Z,13.2
2019-02-24T11:02:29.523Z,13.9
2019-02-24T11:07:28.512Z,14.1
2019-02-24T11:12:28.771Z,14.1
2019-02-24T11:17:28.632Z,14.6
2019-02-24T11:22:29.764Z,14.5
2019-02-24T11:27:28.238Z,14.7
2019-02-24T11:32:29.087Z,15.0
2019-02-24T11:37:28.121Z,14.9
2019-02-24T11:42:28.427Z,14.8
2019-02-24T11:47:28.812Z,14.9
2019-02-24T11:52:28.171Z,15.7
2019-02-24T11:57:29.221Z,15.7
2019-02-24T12:02:34.126Z,16.2
2019-02-24T12:07:28.126Z,17.3
2019-02-24T12:12:28.565Z,17.2
2019-02-24T12:17:29.043Z,17.5
2019-02-24T12:22:27.851Z,17.5
2019-02-24T12:27:28.668Z,18.2
2019-02-24T12:32:27.913Z,18.1
2019-02-24T12:37:27.543Z,18.7
2019-02-24T12:42:27.975Z,19.2
2019-02-24T12:47:28.780Z,19.5
2019-02-24T12:52:28.673Z,19.7
2019-02-24T12:57:29.128Z,19.9
2019-02-24T13:02:28.379Z,20.1
2019-02-24T13:07:29.489Z,19.9
2019-02-24T13:12:27.988Z,20.0
2019-02-24T13:17:28.279Z,20.4
2019-02-24T13:22:28.266Z,20.7
2019-02-24T13:27:28.626Z,21.0
2019-02-24T13:32:29.523Z,21.2
2019-02-24T13:37:30.633Z,21.4
2019-02-24T13:42:28.849Z,21.4
2019-02-24T13:47:28.336Z,21.6
2019-02-24T13:52:29.082Z,22.0
2019-02-24T13:57:28.797Z,22.5
2019-02-24T14:02:27.703Z,22.4
2019-02-24T14:07:31.302Z,22.8
2019-02-24T14:12:29.183Z,23.0
2019-02-24T14:17:30.173Z,23.6
2019-02-24T14:22:29.241Z,24.4
2019-02-24T14:27:28.507Z,26.1
2019-02-24T14:32:32.951Z,26.1
2019-02-24T14:37:28.356Z,27.2
2019-02-24T14:42:28.243Z,29.7
2019-02-24T14:47:28.139Z,29.7
2019-02-24T14:52:28.320Z,30.8
2019-02-24T14:57:30.278Z,32.1
2019-02-24T15:02:28.877Z,33.2
2019-02-24T15:07:27.998Z,34.2
2019-02-24T15:12:29.966Z,35.1
2019-02-24T15:17:28.628Z,36.4
2019-02-24T15:22:28.099Z,36.5
2019-02-24T15:27:28.278Z,36.5
2019-02-24T15:32:28.642Z,36.8
2019-02-24T15:37:27.801Z,37.2
2019-02-24T15:42:27.988Z,37.4
2019-02-24T15:47:28.487Z,37.6
2019-02-24T15:52:28.694Z,37.9
2019-02-24T15:57:28.279Z,38.1
2019-02-24T16:02:27.910Z,38.1
2019-02-24T16:07:28.800Z,37.8
2019-02-24T16:12:28.430Z,37.6
2019-02-24T16:17:28.542Z,37.1
2019-02-24T16:22:29.180Z,36.5
2019-02-24T16:27:28.696Z,35.8
2019-02-24T16:32:28.182Z,35.3
2019-02-24T16:37:28.324Z,33.7
2019-02-24T16:42:29.482Z,33.7
2019-02-24T16:47:28.670Z,32.7
2019-02-24T16:52:28.515Z,31.2
2019-02-24T16:57:28.887Z,29.2
2019-02-24T17:02:29.169Z,25.7
2019-02-24T17:07:28.287Z,21.2
2019-02-24T17:12:27.334Z,21.1
2019-02-24T17:17:28.971Z,19.7
2019-02-24T17:22:28.237Z,18.3
2019-02-24T17:27:30.036Z,17.2
2019-02-24T17:32:28.441Z,16.2
2019-02-24T17:37:28.623Z,15.4
2019-02-24T17:42:28.127Z,14.8
2019-02-24T17:47:27.952Z,14.2
2019-02-24T17:52:28.235Z,13.6
2019-02-24T17:57:27.901Z,13.1
2019-02-24T18:02:27.526Z,12.5
2019-02-24T18:07:29.041Z,11.6
2019-02-24T18:12:27.501Z,11.5
2019-02-24T18:17:28.071Z,11.2
2019-02-24T18:22:28.033Z,11.0
2019-02-24T18:27:27.323Z,10.6
2019-02-24T18:32:28.071Z,10.4
2019-02-24T18:37:28.229Z,10.2
2019-02-24T18:42:27.793Z,10.0
2019-02-24T18:47:28.317Z,9.3
2019-02-24T18:52:28.142Z,9.3
2019-02-24T18:57:28.255Z,9.1
2019-02-24T19:02:27.445Z,8.9
2019-02-24T19:07:28.318Z,8.7
2019-02-24T19:12:27.574Z,8.5
2019-02-24T19:17:27.781Z,8.4
2019-02-24T19:22:28.237Z,8.3
2019-02-24T19:27:28.278Z,8.1
2019-02-24T19:32:27.977Z,7.8
2019-02-24T19:37:27.566Z,7.8
2019-02-24T19:42:27.783Z,7.7
2019-02-24T19:47:28.571Z,7.7
2019-02-24T19:52:28.442Z,7.5
2019-02-24T19:57:28.314Z,7.4
2019-02-24T20:02:27.559Z,7.4
2019-02-24T20:07:28.218Z,7.2
2019-02-24T20:12:27.748Z,7.0
2019-02-24T20:17:27.980Z,6.9
2019-02-24T20:22:27.476Z,6.5
2019-02-24T20:27:28.647Z,6.5
2019-02-24T20:32:27.660Z,6.3
2019-02-24T20:37:28.626Z,6.2
2019-02-24T20:42:29.116Z,6.1
2019-02-24T20:47:28.670Z,6.1
2019-02-24T20:52:29.170Z,6.0
2019-02-24T20:57:28.330Z,5.9
2019-02-24T21:02:27.900Z,5.8
2019-02-24T21:07:28.120Z,5.7
2019-02-24T21:12:28.380Z,5.7
2019-02-24T21:17:28.932Z,5.3
2019-02-24T21:22:27.928Z,5.2
2019-02-24T21:27:27.667Z,5.2
2019-02-24T21:32:28.589Z,5.0
2019-02-24T21:37:29.505Z,4.9
2019-02-24T21:42:27.375Z,4.8
2019-02-24T21:47:28.085Z,4.7
2019-02-24T21:52:27.815Z,4.6
2019-02-24T21:57:27.723Z,4.6
2019-02-24T22:02:27.821Z,4.5
2019-02-24T22:07:27.718Z,4.5
2019-02-24T22:12:28.105Z,4.4
2019-02-24T22:17:27.931Z,4.3
2019-02-24T22:22:28.003Z,4.2
2019-02-24T22:27:27.457Z,4.1
2019-02-24T22:32:28.280Z,4.1
2019-02-24T22:37:29.071Z,4.0
2019-02-24T22:42:27.943Z,3.9
2019-02-24T22:47:28.276Z,3.8
2019-02-24T22:52:28.678Z,3.7
2019-02-24T22:57:28.149Z,3.6
2019-02-24T23:02:27.815Z,3.6
2019-02-24T23:07:27.622Z,3.6
2019-02-24T23:12:27.164Z,3.6
2019-02-24T23:23:05.891Z,3.3
2019-02-24T23:28:04.828Z,3.2
2019-02-24T23:33:05.187Z,3.2
2019-02-24T23:38:04.766Z,3.2
2019-02-24T23:43:05.123Z,3.2
2019-02-24T23:48:04.636Z,3.1
2019-02-24T23:53:04.583Z,3.0
2019-02-24T23:58:06.007Z,2.9
